Go Pro

Invesco RAFI Emerging Markets ETF (PXH) Institutional Ownership

Invesco RAFI Emerging Markets ETF logo
$30.03 +0.05 (+0.17%)
As of 03:58 PM Eastern

Institutional Ownership Changes (13F Filings) for Invesco RAFI Emerging Markets ETF (NYSEARCA:PXH)

Number of
Institutional Buyers
(last 12 months)
125
Total
Institutional Inflows
(last 12 months)
$162.46M
Number of
Institutional Sellers
(last 12 months)
50
Total
Institutional Outflows
(last 12 months)
$40.77M
Get PXH Insider Trade Alerts

Want to know when executives and insiders are buying or selling Invesco RAFI Emerging Markets ETF stock? Sign up for InsiderTrades.com's daily newsletter to get the latest insider transactions delivered to your inbox daily.

SMS is currently available in Australia, Belgium, Canada, France, Germany, Ireland, Italy, New Zealand, the Netherlands, Singapore, South Africa, Spain, Switzerland, the United Kingdom, and the United States. By entering your phone number and clicking the sign-up button, you agree to receive periodic text messages from MarketBeat at the phone number you submitted, including texts that may be sent using an automatic telephone dialing system. Message and data rates may apply. Message frequency will vary. Messages will consist of stock alerts, news stories, and partner advertisements/offers. Consent is not a condition of the purchase of any goods or services. Text HELP for help/customer support. Unsubscribe at any time by replying "STOP" to any text message that you receive from MarketBeat or by visiting our mailing preferences page. Read our full terms of service and privacy policy.
Skip Chart & View Institutional Buying and Selling Data

PXH Institutional Buying and Selling by Quarter

Invesco RAFI Emerging Markets ETF Major Shareholders & Ownership History

Reporting DateMajor Shareholder NameShares HeldMarket Value% of PortfolioQuarterly Change in SharesOwnership in CompanyDetails
9/2/2026Kinetic Wealth Investment Advisors LLC30,246$843K0.4%N/A0.045%
9/2/2026 Citadel Advisors LLC146,110$4.07M0.0%+155.7%0.218%
8/27/2026 Corient Private Wealth LP24,907$694K0.0%-46.5%0.037%
8/23/2026 Hyundai Investments Co. Ltd.35,885$1M1.1%N/A0.054%
8/23/2026 Asset Allocation Strategies LLC118,382$3.30M0.5%N/A0.177%
8/20/2026 Proficio Capital Partners LLC58,700$1.64M0.1%N/A0.088%
8/20/2026 Community Bank & Trust Waco Texas13,635$380K0.1%N/A0.020%
8/20/2026 Nwam LLC40,810$1.14M0.1%N/A0.061%
8/20/2026 RPg Family Wealth Advisory LLC13,010$363K0.1%N/A0.019%
8/20/2026 Risk Paradigm Group LLC12,432$347K0.2%N/A0.019%
7/10/2026 Accel Wealth Management32,812$915K0.2%-8.8%0.049%
7/10/2026 JFS Wealth Advisors LLC14,147$394K0.0%+6.0%0.021%
7/10/2026 Charles Schwab Trust Co72,375$2.02M0.1%-1.7%0.108%
7/10/2026 KWB Wealth85,697$2.39M0.2%-2.6%0.128%
7/9/2026 Revolve Wealth Partners LLC17,471$487K0.1%-4.1%0.026%
7/9/2026 Breakwater Capital Group26,308$733K0.1%+19.2%0.039%
7/2/2026 MassMutual Private Wealth & Trust FSB72,610$2.02M0.1%-1.6%0.108%
6/3/2026 NewEdge Advisors LLC54,388$1.46M0.0%+5.2%0.079%
5/29/2026 Asset Dedication LLC10,560$284K0.0%-3.5%0.015%
5/19/2026 Western Wealth Management LLC1,200$32K0.0%N/A0.002%
5/19/2026 Bank of America Corp DE1,686,830$45.39M0.0%+6.1%2.464%
5/18/2026 Rivernorth Capital Management LLC58,576$1.58M0.1%+5.4%0.086%
5/18/2026 Royal Bank of Canada196,406$5.29M0.0%-1.5%0.287%
5/16/2026 Quantinno Capital Management LP30,961$833K0.0%+8.1%0.045%
5/15/2026 Waverly Advisors LLC76,212$2.05M0.0%-7.1%0.111%
5/14/2026 Lido Advisors LLC14,461$389K0.0%+26.3%0.021%
5/13/2026 Cetera Investment Advisers336,805$9.06M0.0%+30.0%0.492%
5/5/2026 Wealthfront Advisers LLC53,078$1.43M0.0%+81.5%0.078%
5/5/2026 Bank of New York Mellon Corp948,008$25.51M0.0%+15.5%1.385%
5/5/2026 Sanctuary Advisors LLC68,188$1.84M0.0%+10.1%0.100%
5/2/2026 Navigate Wealth Management LLC11,081$313K0.2%N/A0.016%
5/1/2026 Fifth Third Bancorp4,799$129K0.0%+400.4%0.007%
5/1/2026 American Trust12,341$332K0.0%-4.5%0.018%
4/30/2026 Kestra Advisory Services LLC18,938$510K0.0%+54.6%0.028%
4/29/2026 Lmcg Investments LLC146,957$3.96M0.2%+13.1%0.215%
4/29/2026 Integrated Advisors Network LLC47,812$1.29M0.1%-6.1%0.070%
4/28/2026 Kathmere Capital Management LLC110,371$2.97M0.2%-1.7%0.161%
4/28/2026 Ascentis Independent Advisors76,281$2.05M0.2%N/A0.111%
4/27/2026 Apeiron RIA LLC28,915$778K0.2%+54.7%0.042%
4/27/2026 Private Advisor Group LLC43,333$1.17M0.0%-35.5%0.063%
My top 3 AI picks for the next decade (Ad)

Alexander Green bought Apple in 1996, recommended Nvidia at a split-adjusted 66 cents in 2004, and picked up Amazon and Netflix under $3 per share in 2005. Now the chief investment strategist at The Oxford Club has identified three AI stocks he believes could be the most profitable investments of the next decade.tc pixel

Click here to get all three AI stock names from Alexander Green
4/27/2026 Trademark Financial Management LLC26,376$710K0.3%-42.1%0.039%
4/27/2026 Elevation Point Wealth Partners LLC12,900$347K0.0%N/A0.019%
4/24/2026 Key Financial Inc7,240$195K0.0%+370.1%0.011%
4/23/2026 Flagstar Advisors Inc.18,992$511K0.2%+17.4%0.028%
4/23/2026 Apollon Wealth Management LLC34,225$921K0.0%+33.1%0.050%
4/21/2026 Maridea Wealth Management LLC24,429$657K0.1%+66.2%0.036%
4/21/2026 Foster & Motley Inc.137,551$3.70M0.2%-5.9%0.201%
4/20/2026 Breakwater Capital Group22,071$594K0.1%+11.5%0.032%
4/20/2026 TrueMark Investments LLC58,576$1.58M0.3%+5.4%0.086%
4/18/2026 Cidel Asset Management Inc.619,812$16.68M0.9%+8.8%0.905%
4/16/2026 Prairiewood Capital LLC20,705$557K0.2%-8.0%0.030%
3/9/2026 Corient Private Wealth LLC38,254$987K0.0%+247.1%0.056%
2/19/2026 Invesco Ltd.1,517,191$39.16M0.0%+16.1%2.204%
2/19/2026 Axxcess Wealth Management LLC193,369$4.99M0.1%N/A0.281%
2/19/2026 Corient Private Wealth LLC38,254$987K0.0%+247.1%0.056%
2/18/2026 Mercer Global Advisors Inc. ADV62,882$1.62M0.0%+45.8%0.091%
2/18/2026 NewEdge Advisors LLC51,710$1.34M0.0%+1.6%0.075%
2/18/2026 Crusonia Wealth Advisors LLC28,740$742K0.2%N/A0.042%
2/18/2026 VestGen Advisors LLC23,453$605K0.0%-7.9%0.034%
2/18/2026 Rivernorth Capital Management LLC55,600$1.44M0.1%+2.5%0.081%
2/18/2026 OLD Mission Capital LLC11,142$288K0.0%-58.6%0.016%
2/18/2026 Evolve Private Wealth LLC17,197$444K0.0%N/A0.025%
2/17/2026 Integrated Advisors Network LLC50,911$1.31M0.1%+7.1%0.074%
2/17/2026 AQR Capital Management LLC8,169$211K0.0%N/A0.012%
2/17/2026 Cetera Investment Advisers259,172$6.69M0.0%+187.3%0.376%
2/17/2026 Osaic Holdings Inc.598,737$15.45M0.0%-6.9%0.870%
2/17/2026 Advisory Services Network LLC127,335$3.29M0.0%+8,943.7%0.185%
2/17/2026 Captrust Financial Advisors408,538$10.54M0.0%+1.5%0.593%
2/17/2026 Pacific Financial Group Inc.14,361$371K0.2%N/A0.021%
2/17/2026 &PARTNERS102,312$2.64M0.0%N/A0.149%
2/17/2026 Royal Bank of Canada199,477$5.15M0.0%-4.8%0.290%
2/16/2026 MML Investors Services LLC14,456$373K0.0%+30.7%0.021%
2/16/2026 Mariner LLC93,480$2.41M0.0%+24.4%0.136%
2/13/2026 Kestra Advisory Services LLC12,247$316K0.0%N/A0.018%
2/13/2026 Itau Unibanco Holding S.A.3,051,133$78.75M1.9%+4.3%4.432%
2/13/2026 Golden State Wealth Management LLC5,639$146K0.0%-27.7%0.008%
2/13/2026 Charles Schwab Investment Management Inc.23,615,223$609.51M0.1%-1.9%34.300%
2/13/2026 Wells Fargo & Company MN2,326,588$60.05M0.0%+22.5%3.379%
2/12/2026 Orion Porfolio Solutions LLC163,401$4.22M0.0%-16.6%0.237%
2/12/2026 TopTier Wealth Management LLC37,541$969K0.7%N/A0.055%
2/12/2026 Commonwealth Equity Services LLC32,289$833K0.0%+14.2%0.047%
2/12/2026 Steward Partners Investment Advisory LLC32,903$849K0.0%-3.9%0.048%
2/12/2026CIBC Private Wealth Group LLC9,696$250K0.0%+4.5%0.014%
2/12/2026 Brown Brothers Harriman & Co.1,053$27K0.0%N/A0.002%
2/12/2026 Trailhead Planners LLC12,280$317K0.3%N/A0.018%
2/12/2026 Great Valley Advisor Group Inc.9,640$249K0.0%N/A0.014%
2/11/2026 Cerity Partners LLC33,576$867K0.0%+7.8%0.049%
2/11/2026 LPL Financial LLC1,894,726$48.90M0.0%+88.6%2.752%
2/11/2026 O Shaughnessy Asset Management LLC5,168$133K0.0%+8.4%0.008%
2/11/2026 Daiwa Securities Group Inc.1,170,500$30.21M0.1%-12.4%1.700%
ALERT: Drop these 5 stocks before the market opens tomorrow! (Ad)

The Wall Street Journal is already raising the alarm about a potential market crash, and Weiss Ratings research points to the first half of 2026 as a particularly rough stretch for certain holdings. Some of America's most popular stocks could take serious damage as a radical market shift plays out. Analysts at Weiss Ratings have identified five names you may want to remove from your portfolio before this unfolds. If any of these are in your portfolio, now is the time to review your positions.tc pixel

2/10/2026 Cibc World Market Inc.31,675$818K0.0%+4.0%0.046%
2/10/2026 Bank of New York Mellon Corp820,831$21.19M0.0%-1.2%1.192%
2/10/2026 Root Financial Partners LLC4,647$120K0.0%+58.2%0.007%
2/10/2026 Redwood Financial Network Corp11,243$290K0.2%+22.8%0.016%
2/10/2026 Rothschild Investment LLC172,524$4.45M0.2%-0.4%0.251%
2/10/2026 Northwestern Mutual Wealth Management Co.151,335$3.91M0.0%+294.6%0.220%
2/10/2026 IFG Advisory LLC22,361$577K0.0%+7.4%0.032%
2/9/2026 Connecticut Capital Management Group LLC71,499$1.85M1.8%N/A0.104%
2/9/2026 Key Financial Inc1,540$40K0.0%+2,100.0%0.002%
2/9/2026 CBIZ Investment Advisory Services LLC1,000$26K0.0%N/A0.001%


PXH Institutional Ownership - Frequently Asked Questions

During the previous two years, 191 institutional investors and hedge funds held shares of Invesco RAFI Emerging Markets ETF. The most heavily invested institutionals were Charles Schwab Investment Management Inc. ($609.51M), Itau Unibanco Holding S.A. ($78.75M), Ameriprise Financial Inc. ($65.48M), Wells Fargo & Company MN ($60.05M), LPL Financial LLC ($48.90M), Bank of America Corp DE ($45.39M), and FMR LLC ($42.23M).Learn more on Invesco RAFI Emerging Markets ETF's institutional investors.

Of the 174 institutional investors that purchased Invesco RAFI Emerging Markets ETF's stock in the last 24 months, the following investors and hedge funds have bought the highest volume of shares: Itau Unibanco Holding S.A. ($3.05M), Charles Schwab Investment Management Inc. ($2.22M), Invesco Ltd. ($1.13M), LPL Financial LLC ($1.03M), Daiwa Securities Group Inc. ($670K), Atlas Legacy Advisors LLC ($594.52K), and Raymond James Financial Inc. ($511.28K).

Institutional investors have bought a total of 6,262,330 shares in the last 24 months. This purchase volume represents approximately $162.46M in transactions.

Of the 50 institutional investors that sold Invesco RAFI Emerging Markets ETF's stock in the last 24 months, the following investors and hedge funds have sold the highest volume of shares: Charles Schwab Investment Management Inc. ($456.95K), Daiwa Securities Group Inc. ($165K), Victory Capital Management Inc. ($146.76K), Bank of America Corp DE ($133.20K), Susquehanna International Group LLP ($114.30K), Fiduciary Trust Co ($102.50K), and Captrust Financial Advisors ($54.90K).

Institutional investors have sold a total of 1,584,508 shares in the last 24 months. This volume of shares sold represents approximately $40.77M in transactions.



Institutional ownership data for NYSEARCA:PXH is compiled from quarterly 13F filings submitted to the U.S. Securities and Exchange Commission (SEC), with the most recent received on 9/2/2026. New 13F filings are added each quarter as they're published.
From Our Partners